Terminal Aerodrome Forecast
Issued by NWS

Home | Current Version | Previous Version | Graphics & Text | Print | Product List | Glossary On
Versions: 1 2 3 4 5 6 7 8 9 10 11 12 13 14 15 16
000
FTUS43 KIWX 261934 AAA
TAFSBN
TAF AMD
KSBN 261934Z 2620/2718 34008KT P6SM SCT015 BKN030
     FM270100 32003KT P6SM SCT020 BKN040
     FM270700 00000KT 4SM BR SCT150
      TEMPO 2710/2713 2SM BR BKN006
     FM271400 VRB04KT P6SM SCT150=

USA.gov is the U.S. government's official web portal to all federal, state and local government web resources and services.